Map

Track Data

SID SEASON NUMBER BASIN SUBBASIN NAME ISO_TIME NATURE LAT LON WMO_WIND WMO_PRES WMO_AGENCY TRACK_TYPE DIST2LAND LANDFALL IFLAG USA_AGENCY USA_ATCF_ID USA_LAT USA_LON USA_RECORD USA_STATUS USA_WIND USA_PRES USA_SSHS USA_R34_NE USA_R34_SE USA_R34_SW USA_R34_NW USA_R50_NE USA_R50_SE USA_R50_SW USA_R50_NW USA_R64_NE USA_R64_SE USA_R64_SW USA_R64_NW USA_POCI USA_ROCI USA_RMW USA_EYE TOKYO_LAT TOKYO_LON TOKYO_GRADE TOKYO_WIND TOKYO_PRES TOKYO_R50_DIR TOKYO_R50_LONG TOKYO_R50_SHORT TOKYO_R30_DIR TOKYO_R30_LONG TOKYO_R30_SHORT TOKYO_LAND CMA_LAT CMA_LON CMA_CAT CMA_WIND CMA_PRES HKO_LAT HKO_LON HKO_CAT HKO_WIND HKO_PRES NEWDELHI_LAT NEWDELHI_LON NEWDELHI_GRADE NEWDELHI_WIND NEWDELHI_PRES NEWDELHI_CI NEWDELHI_DP NEWDELHI_POCI REUNION_LAT REUNION_LON REUNION_TYPE REUNION_WIND REUNION_PRES REUNION_TNUM REUNION_CI REUNION_RMW REUNION_R34_NE REUNION_R34_SE REUNION_R34_SW REUNION_R34_NW REUNION_R50_NE REUNION_R50_SE REUNION_R50_SW REUNION_R50_NW REUNION_R64_NE REUNION_R64_SE REUNION_R64_SW REUNION_R64_NW BOM_LAT BOM_LON BOM_TYPE BOM_WIND BOM_PRES BOM_TNUM BOM_CI BOM_RMW BOM_R34_NE BOM_R34_SE BOM_R34_SW BOM_R34_NW BOM_R50_NE BOM_R50_SE BOM_R50_SW BOM_R50_NW BOM_R64_NE BOM_R64_SE BOM_R64_SW BOM_R64_NW BOM_ROCI BOM_POCI BOM_EYE BOM_POS_METHOD BOM_PRES_METHOD NADI_LAT NADI_LON NADI_CAT NADI_WIND NADI_PRES WELLINGTON_LAT WELLINGTON_LON WELLINGTON_WIND WELLINGTON_PRES DS824_LAT DS824_LON DS824_STAGE DS824_WIND DS824_PRES TD9636_LAT TD9636_LON TD9636_STAGE TD9636_WIND TD9636_PRES TD9635_LAT TD9635_LON TD9635_WIND TD9635_PRES TD9635_ROCI NEUMANN_LAT NEUMANN_LON NEUMANN_CLASS NEUMANN_WIND NEUMANN_PRES MLC_LAT MLC_LON MLC_CLASS MLC_WIND MLC_PRES USA_GUST BOM_GUST BOM_GUST_PER REUNION_GUST REUNION_GUST_PER USA_SEAHGT USA_SEARAD_NE USA_SEARAD_SE USA_SEARAD_SW USA_SEARAD_NW STORM_SPEED STORM_DIR
1993275N04159 1993 77 WP MM GENE 1993-10-02 06:00:00 NR 4.00000 158.900 main 1115 1115 O_____________ jtwc_wp WP271993 4.00000 158.900 10 -1 14 322
1993275N04159 1993 77 WP MM GENE 1993-10-02 09:00:00 NR 4.55256 158.465 main 1142 1135 P_____________ WP271993 4.55256 158.465 10 -1 14 321
1993275N04159 1993 77 WP MM GENE 1993-10-02 12:00:00 NR 5.10000 158.000 main 1153 1153 O_____________ jtwc_wp WP271993 5.10000 158.000 10 -1 15 317
1993275N04159 1993 77 WP MM GENE 1993-10-02 15:00:00 NR 5.61743 157.480 main 1169 1164 P_____________ WP271993 5.61743 157.480 10 -1 14 309
1993275N04159 1993 77 WP MM GENE 1993-10-02 18:00:00 NR 6.00000 156.900 main 1173 1150 O_____________ jtwc_wp WP271993 6.00000 156.900 10 -1 13 294
1993275N04159 1993 77 WP MM GENE 1993-10-02 21:00:00 NR 6.15247 156.265 main 1160 1125 P_____________ WP271993 6.15247 156.265 10 -1 13 279
1993275N04159 1993 77 WP MM GENE 1993-10-03 00:00:00 NR 6.20000 155.600 main 1125 1106 O_____________ jtwc_wp WP271993 6.20000 155.600 10 -1 13 276
1993275N04159 1993 77 WP MM GENE 1993-10-03 03:00:00 NR 6.29995 154.942 main 1102 1087 P_____________ WP271993 6.29995 154.942 12 -1 13 279
1993275N04159 1993 77 WP MM GENE 1993-10-03 06:00:00 NR 6.40000 154.300 main 1087 1076 O_____________ jtwc_wp WP271993 6.40000 154.300 15 -1 13 279
1993275N04159 1993 77 WP MM GENE 1993-10-03 09:00:00 NR 6.50747 153.670 main 1076 1067 P_____________ WP271993 6.50747 153.670 15 -1 12 280
1993275N04159 1993 77 WP MM GENE 1993-10-03 12:00:00 NR 6.60000 153.100 main 1070 1061 O_____________ jtwc_wp WP271993 6.60000 153.100 15 -1 10 278
1993275N04159 1993 77 WP MM GENE 1993-10-03 15:00:00 NR 6.64989 152.627 main 1059 1059 P_____________ WP271993 6.64989 152.627 15 -1 9 276
1993275N04159 1993 77 WP MM GENE 1993-10-03 18:00:00 NR 6.70000 152.200 main 1063 1059 O_____________ jtwc_wp WP271993 6.70000 152.200 15 -1 9 278
1993275N04159 1993 77 WP MM GENE 1993-10-03 21:00:00 NR 6.77753 151.720 main 1068 1066 P_____________ WP271993 6.77753 151.720 15 -1 9 283
1993275N04159 1993 77 WP MM GENE 1993-10-04 00:00:00 NR 6.90000 151.300 main 1076 1076 O_____________ jtwc_wp WP271993 6.90000 151.300 15 -1 8 294
1993275N04159 1993 77 WP MM GENE 1993-10-04 03:00:00 NR 7.08494 151.012 main 1098 1098 P_____________ WP271993 7.08494 151.012 15 -1 6 309
1993275N04159 1993 77 WP MM GENE 1993-10-04 06:00:00 NR 7.30000 150.800 main 1119 1119 O_____________ jtwc_wp WP271993 7.30000 150.800 15 -1 6 315
1993275N04159 1993 77 WP MM GENE 1993-10-04 09:00:00 NR 7.50748 150.592 main 1132 1132 P_____________ WP271993 7.50748 150.592 15 -1 6 315
1993275N04159 1993 77 WP MM GENE 1993-10-04 12:00:00 NR 7.70000 150.400 main 1147 1147 O_____________ jtwc_wp WP271993 7.70000 150.400 15 -1 5 314
1993275N04159 1993 77 WP MM GENE 1993-10-04 15:00:00 NR 7.87248 150.207 main 1162 1159 P_____________ WP271993 7.87248 150.207 15 -1 5 307
1993275N04159 1993 77 WP MM GENE 1993-10-04 18:00:00 NR 8.00000 150.000 main 1168 1162 O_____________ jtwc_wp WP271993 8.00000 150.000 15 -1 5 294
1993275N04159 1993 77 WP MM GENE 1993-10-04 21:00:00 NR 8.06498 149.765 main 1173 1166 P_____________ WP271993 8.06498 149.765 17 -1 5 281
1993275N04159 1993 77 WP MM GENE 1993-10-05 00:00:00 NR 8.10000 149.500 main 1166 1160 O_____________ jtwc_wp WP271993 8.10000 149.500 20 -1 6 278
1993275N04159 1993 77 WP MM GENE 1993-10-05 03:00:00 NR 8.14248 149.215 main 1160 1160 P_____________ WP271993 8.14248 149.215 20 -1 6 280
1993275N04159 1993 77 WP MM GENE 1993-10-05 06:00:00 NR 8.20000 148.900 main 1166 1163 O_____________ jtwc_wp WP271993 8.20000 148.900 20 -1 7 283
1993275N04159 1993 77 WP MM GENE 1993-10-05 09:00:00 NR 8.29245 148.572 main 1172 1170 P_____________ WP271993 8.29245 148.572 20 -1 7 286
1993275N04159 1993 77 WP MM GENE 1993-10-05 12:00:00 NR 8.40000 148.200 main 1179 1178 O_____________ jtwc_wp WP271993 8.40000 148.200 20 -1 8 285
1993275N04159 1993 77 WP MM GENE 1993-10-05 15:00:00 NR 8.50741 147.788 main 1188 1188 P_____________ WP271993 8.50741 147.788 20 -1 9 283
1993275N04159 1993 77 WP MM GENE 1993-10-05 18:00:00 NR 8.60000 147.300 main 1199 1199 O_____________ jtwc_wp WP271993 8.60000 147.300 20 -1 11 278
1993275N04159 1993 77 WP MM GENE 1993-10-05 21:00:00 NR 8.65750 146.722 main 1210 1210 P_____________ WP271993 8.65750 146.722 20 -1 12 275
1993275N04159 1993 77 WP MM GENE 1993-10-06 00:00:00 NR 8.70000 146.100 main 1211 1211 O_____________ jtwc_wp WP271993 8.70000 146.100 20 -1 12 274
1993275N04159 1993 77 WP MM GENE 1993-10-06 03:00:00 NR 8.74987 145.507 main 1216 1216 P_____________ WP271993 8.74987 145.507 20 -1 12 275
1993275N04159 1993 77 WP MM GENE 1993-10-06 06:00:00 NR 8.80000 144.900 main 1235 1235 O_____________ jtwc_wp WP271993 8.80000 144.900 20 -1 12 274
1993275N04159 1993 77 WP MM GENE 1993-10-06 09:00:00 NR 8.84246 144.250 main 1250 1250 P_____________ WP271993 8.84246 144.250 20 -1 13 274
1993275N04159 1993 77 WP MM GENE 1993-10-06 12:00:00 NR 8.90000 143.600 main 1276 1276 O_____________ jtwc_wp WP271993 8.90000 143.600 20 -1 13 277
1993275N04159 1993 77 WP MM GENE 1993-10-06 15:00:00 NR 8.98490 142.985 main 1300 1284 P_____________ WP271993 8.98490 142.985 22 -1 12 279
1993275N04159 1993 77 WP MM GENE 1993-10-06 18:00:00 TS 9.08000 142.440 main 1286 1282 O_O___________ jtwc_wp WP271993 9.10000 142.400 25 -1 9.00000 142.600 0 19 1006 11 288
1993275N04159 1993 77 WP MM GENE 1993-10-06 21:00:00 TS 9.31400 141.941 main 1288 1288 P_P___________ WP271993 9.22742 141.835 25 -1 9.48718 142.152 0 19 1006 12 299
1993275N04159 1993 77 WP MM GENE 1993-10-07 00:00:00 TS 9.65714 141.386 main 1314 1309 O_O___________ jtwc_wp WP271993 9.40000 141.300 25 -1 10.0000 141.500 0 19 1006 15 301
1993275N04159 1993 77 WP MM GENE 1993-10-07 03:00:00 TS 10.0714 140.673 main 1332 1323 P_P___________ WP271993 9.60479 140.815 25 -1 10.5380 140.531 0 21 1005 18 298
1993275N04159 1993 77 WP MM GENE 1993-10-07 06:00:00 TS 10.5111 139.744 1006 tokyo main 1334 1334 OOO___________ jtwc_wp WP271993 9.90000 140.300 25 -1 11.0000 138.500 2 1006 0 0 0 11.0000 139.500 1 23 1005 19 295
1993275N04159 1993 77 WP MM GENE 1993-10-07 09:00:00 TS 10.8685 138.926 main 1350 1342 PPP___________ WP271993 10.2976 139.665 25 -1 11.2477 137.980 2 1006 0 0 11.2498 138.659 1 23 1005 17 296
1993275N04159 1993 77 WP MM GENE 1993-10-07 12:00:00 TS 11.2455 138.227 1006 tokyo main 1331 1286 OOO___________ jtwc_wp WP271993 10.8000 139.000 25 -1 11.5000 137.500 2 1006 0 0 0 11.5000 138.000 1 23 1005 15 304
1993275N04159 1993 77 WP MM GENE 1993-10-07 15:00:00 TS 11.7007 137.672 main 1289 1256 PPP___________ WP271993 11.3699 138.377 25 -1 11.7699 137.097 2 1005 0 0 11.9622 137.540 1 26 1003 13 315
1993275N04159 1993 77 WP MM GENE 1993-10-07 18:00:00 TS 12.2000 137.267 1004 tokyo main 1259 1223 OOO___________ jtwc_wp WP271993 12.0000 137.800 25 -1 12.1000 136.800 2 1004 0 0 0 12.5000 137.200 1 29 1002 13 324
1993275N04159 1993 77 WP MM GENE 1993-10-07 21:00:00 TS 12.7258 136.906 main 1223 1216 PPP___________ WP271993 12.6574 137.262 27 -1 12.5124 136.620 2 1004 0 0 13.0074 136.835 1 29 1001 12 336
1993275N04159 1993 77 WP MM GENE 1993-10-08 00:00:00 TS 13.2923 136.769 1004 tokyo main 1223 1209 OOOO__________ jtwc_wp WP271993 13.3000 136.800 30 -1 13.0000 136.500 2 1004 0 0 0 13.5000 136.500 1 29 1000 13.6000 138.800 TD 30 1000 11 343
1993275N04159 1993 77 WP MM GENE 1993-10-08 03:00:00 TS 13.8164 136.570 main 1214 1192 PPPP__________ WP271993 13.8573 136.442 30 -1 13.5199 136.380 2 1003 0 0 13.9275 136.177 1 29 1000 14.1056 137.993 TD 30 1000 12 337
1993275N04159 1993 77 WP MM GENE 1993-10-08 06:00:00 TS 14.3600 136.293 1002 tokyo main 1194 1172 OOOO__________ jtwc_wp WP271993 14.4000 136.100 30 -1 14.1000 136.200 2 1002 0 0 0 14.4000 135.900 1 29 1000 14.6000 137.200 TD 30 1000 13 331
1993275N04159 1993 77 WP MM GENE 1993-10-08 09:00:00 TS 14.9524 135.927 main 1167 1141 PPPP__________ WP271993 14.9850 135.665 30 -1 14.7274 135.902 2 1001 0 0 15.0124 135.707 1 29 1000 15.0848 136.435 TD 30 1000 15 327
1993275N04159 1993 77 WP MM GENE 1993-10-08 12:00:00 TS 15.5750 135.475 1000 tokyo main 1144 1117 OOOO__________ jtwc_wp WP271993 15.6000 135.200 30 -1 15.4000 135.500 2 1000 0 0 0 15.7000 135.500 1 29 1000 15.6000 135.700 TD 30 1000 16 325
1993275N04159 1993 77 WP MM GENE 1993-10-08 15:00:00 TS 16.2355 134.995 main 1117 1097 PPPP__________ WP271993 16.2499 134.750 32 -1 16.0926 135.015 2 999 0 0 16.4295 135.247 1 29 1000 16.1699 134.970 TD 30 1000 16 324
1993275N04159 1993 77 WP MM GENE 1993-10-08 18:00:00 TS 16.9000 134.475 35 998 tokyo main 1102 1074 OOOO__________ jtwc_wp WP271993 16.9000 134.300 35 0 16.8000 134.500 3 35 998 0 9 90 90 0 17.1000 134.800 1 29 1000 16.8000 134.300 TD 30 1000 17 319
1993275N04159 1993 77 WP MM GENE 1993-10-08 21:00:00 TS 17.5072 133.857 main 1080 1061 PPPP__________ WP271993 17.5001 133.820 35 0 17.5000 134.005 3 35 998 0 9 90 90 17.5364 133.920 1 33 999 17.4924 133.683 TD 30 1000 17 318
1993275N04159 1993 77 WP MM GENE 1993-10-09 00:00:00 TS 18.1250 133.325 35 998 tokyo main 1061 1061 OOOO__________ jtwc_wp WP271993 18.1000 133.400 35 0 18.2000 133.600 3 35 998 0 9 90 90 0 18.0000 133.100 2 38 998 18.2000 133.200 TD 30 1000 15 329
1993275N04159 1993 77 WP MM GENE 1993-10-09 03:00:00 TS 18.8116 133.037 main 1068 1068 PPPP__________ WP271993 18.7273 133.112 35 0 18.8999 133.332 3 35 998 0 9 90 90 18.7619 132.807 2 38 998 18.8572 132.897 TD 30 1000 15 344
1993275N04159 1993 77 WP MM GENE 1993-10-09 06:00:00 TS 19.5250 132.900 35 998 tokyo main 1100 1100 OOOO__________ jtwc_wp WP271993 19.4000 132.900 35 0 19.6000 133.200 3 35 998 0 9 90 90 0 19.6000 132.800 2 38 998 19.5000 132.700 TD 30 1000 14 351
1993275N04159 1993 77 WP MM GENE 1993-10-09 09:00:00 TS 20.2250 132.806 main 1119 1119 PPPP__________ WP271993 20.1425 132.685 32 -1 20.3000 133.184 3 35 998 0 9 90 90 20.3150 132.869 2 38 998 20.1425 132.485 TD 30 1000 14 354
1993275N04159 1993 77 WP MM GENE 1993-10-09 12:00:00 TS 20.9250 132.750 35 998 tokyo main 1134 1068 OOOO__________ jtwc_wp WP271993 20.9000 132.500 30 -1 21.0000 133.200 3 35 998 0 9 90 90 0 21.0000 133.000 2 38 998 20.8000 132.300 TD 30 1000 14 355
1993275N04159 1993 77 WP MM GENE 1993-10-09 15:00:00 TS 21.6231 132.675 main 1068 989 PPPP__________ WP271993 21.6075 132.335 30 -1 21.6850 133.137 3 999 0 9 21.7149 133.102 2 38 998 21.4850 132.128 TD 30 1000 14 355
1993275N04159 1993 77 WP MM GENE 1993-10-09 18:00:00 TS 22.3333 132.613 1000 tokyo main 989 910 OOOO__________ jtwc_wp WP271993 22.3000 132.200 30 -1 22.4000 133.000 2 1000 0 0 0 22.4000 133.100 2 38 998 22.2000 132.000 TD 30 1000 14 352
1993275N04159 1993 77 WP MM GENE 1993-10-09 21:00:00 TS 23.0469 132.455 main 910 830 PPPP__________ WP271993 23.0000 132.063 30 -1 23.1927 132.736 2 1002 0 0 23.0002 132.829 2 33 1000 22.9425 131.932 TD 30 1000 15 349
1993275N04159 1993 77 WP MM GENE 1993-10-10 00:00:00 TS 23.7750 132.308 1004 tokyo main 819 742 OOOO__________ jtwc_wp WP271993 23.7000 132.000 30 -1 24.0000 132.500 2 1004 0 0 0 23.6000 132.600 1 29 1002 23.7000 131.900 TD 30 1000 15 355
1993275N04159 1993 77 WP MM GENE 1993-10-10 03:00:00 TS 24.5238 132.301 main 742 668 PPP___________ WP271993 24.4148 132.018 30 -1 24.7571 132.388 2 1005 0 0 24.2751 132.693 1 26 1004 TD 15 4
1993275N04159 1993 77 WP MM GENE 1993-10-10 06:00:00 TS 25.2667 132.422 1006 tokyo main 657 591 OOO___________ jtwc_wp WP271993 25.1000 132.200 30 -1 25.5000 132.500 2 1006 0 0 0 25.0000 133.000 1 23 1006 15 13
1993275N04159 1993 77 WP MM GENE 1993-10-10 09:00:00 TS 26.0154 132.686 main 591 548 PP____________ WP271993 25.7448 132.560 27 -1 26.2860 132.813 2 1008 0 0 1 16 30
1993275N04159 1993 77 WP MM GENE 1993-10-10 12:00:00 TS 26.6500 133.300 1010 tokyo main 542 537 OO____________ jtwc_wp WP271993 26.3000 133.100 25 -1 27.0000 133.500 2 1010 0 0 0 18 51
1993275N04159 1993 77 WP MM GENE 1993-10-10 15:00:00 TS 27.1578 134.237 main 541 541 PP____________ WP271993 26.7376 133.763 25 -1 27.5780 134.711 2 1011 0 0 21 62
1993275N04159 1993 77 WP MM GENE 1993-10-10 18:00:00 ET 27.6143 135.357 1012 tokyo main 573 572 OO____________ jtwc_wp WP271993 27.1000 134.500 25 -1 28.0000 136.000 6 1012 0 0 0 21 65
1993275N04159 1993 77 WP MM GENE 1993-10-10 21:00:00 ET 28.0328 136.338 main 604 578 PP____________ WP271993 27.4504 135.212 22 -1 28.3239 136.901 6 1013 0 0 18 65
1993275N04159 1993 77 WP MM GENE 1993-10-11 00:00:00 ET 28.3600 137.180 1014 tokyo main 573 567 OO____________ jtwc_wp WP271993 27.8000 135.900 20 -1 28.5000 137.500 6 1014 0 0 0 14 68
1993275N04159 1993 77 WP MM GENE 1993-10-11 03:00:00 ET 28.5743 137.863 main 571 571 _P____________ WP271993 -1 28.5743 137.863 6 1014 0 0 7 79
1993275N04159 1993 77 WP MM GENE 1993-10-11 06:00:00 ET 28.5000 138.000 1014 tokyo main 585 585 _O____________ -1 28.5000 138.000 6 1014 0 0 0 3 147
1993275N04159 1993 77 WP MM GENE 1993-10-11 09:00:00 ET 28.2873 138.075 main 609 609 _P____________ -1 28.2873 138.075 6 1015 0 0 5 178
1993275N04159 1993 77 WP MM GENE 1993-10-11 12:00:00 ET 28.0000 138.000 1016 tokyo main 638 638 _O____________ -1 28.0000 138.000 6 1016 0 0 0 7 205
1993275N04159 1993 77 WP MM GENE 1993-10-11 15:00:00 ET 27.6752 137.749 main 661 661 _P____________ -1 27.6752 137.749 6 1016 0 0 7 222
1993275N04159 1993 77 WP MM GENE 1993-10-11 18:00:00 ET 27.5000 137.500 1016 tokyo main 678 654 _O____________ -1 27.5000 137.500 6 1016 0 0 0 3 277
1993275N04159 1993 77 WP MM GENE 1993-10-11 21:00:00 ET 27.7123 137.425 main 654 623 _P____________ -1 27.7123 137.425 6 1016 0 0 5 2
1993275N04159 1993 77 WP MM GENE 1993-10-12 00:00:00 ET 28.0000 137.500 1016 tokyo main 623 623 _O____________ -1 28.0000 137.500 6 1016 0 0 0 4 42
1993275N04159 1993 77 WP MM GENE 1993-10-12 03:00:00 ET 28.0377 137.750 main 632 632 _P____________ -1 28.0377 137.750 6 1015 0 0 4 90
1993275N04159 1993 77 WP MM GENE 1993-10-12 06:00:00 ET 28.0000 138.000 1014 tokyo main 638 638 _O____________ -1 28.0000 138.000 6 1014 0 0 0 3 98
1993275N04159 1993 77 WP MM GENE 1993-10-12 09:00:00 ET 27.9999 138.038 main 638 638 _P____________ -1 27.9999 138.038 6 1014 0 0 0 0
1993275N04159 1993 77 WP MM GENE 1993-10-12 12:00:00 ET 28.0000 138.000 1014 tokyo main 638 638 _O____________ -1 28.0000 138.000 6 1014 0 0 0 0 270
1993275N04159 1993 77 WP MM GENE 1993-10-12 15:00:00 ET 28.0000 138.000 main 638 638 _P____________ -1 28.0000 138.000 6 1014 0 0 0 0
1993275N04159 1993 77 WP MM GENE 1993-10-12 18:00:00 ET 28.0000 138.000 1014 tokyo main 638 638 _O____________ -1 28.0000 138.000 6 1014 0 0 0 1 228
1993275N04159 1993 77 WP MM GENE 1993-10-12 21:00:00 ET 27.9624 137.963 main 638 638 _P____________ -1 27.9624 137.963 6 1014 0 0 0 0
1993275N04159 1993 77 WP MM GENE 1993-10-13 00:00:00 ET 28.0000 138.000 1014 tokyo main 638 623 _O____________ -1 28.0000 138.000 6 1014 0 0 0 3 41
1993275N04159 1993 77 WP MM GENE 1993-10-13 03:00:00 ET 28.2126 138.212 main 623 604 _P____________ -1 28.2126 138.212 6 1014 0 0 7 41
1993275N04159 1993 77 WP MM GENE 1993-10-13 06:00:00 ET 28.5000 138.500 1014 tokyo main 604 592 _O____________ -1 28.5000 138.500 6 1014 0 0 0 7 41
1993275N04159 1993 77 WP MM GENE 1993-10-13 09:00:00 ET 28.7500 138.750 main 596 577 _P____________ -1 28.7500 138.750 6 1014 0 0 7 41
1993275N04159 1993 77 WP MM GENE 1993-10-13 12:00:00 ET 29.0000 139.000 1014 tokyo main 577 568 _O____________ -1 29.0000 139.000 6 1014 0 0 0 7 41
1993275N04159 1993 77 WP MM GENE 1993-10-13 15:00:00 ET 29.2500 139.250 main 574 558 _P____________ -1 29.2500 139.250 6 1014 0 0 7 41
1993275N04159 1993 77 WP MM GENE 1993-10-13 18:00:00 ET 29.5000 139.500 1014 tokyo main 558 553 _O____________ -1 29.5000 139.500 6 1014 0 0 0 6 41
1993275N04159 1993 77 WP MM GENE 1993-10-13 21:00:00 ET 29.7122 139.713 main 553 525 _P____________ -1 29.7122 139.713 6 1014 0 0 7 41
1993275N04159 1993 77 WP MM GENE 1993-10-14 00:00:00 ET 30.0000 140.000 1014 tokyo main 525 491 _O____________ -1 30.0000 140.000 6 1014 0 0 0 10 41
1993275N04159 1993 77 WP MM GENE 1993-10-14 03:00:00 ET 30.4507 140.448 main 481 446 _P____________ -1 30.4507 140.448 6 1014 0 0 13 41
1993275N04159 1993 77 WP MM GENE 1993-10-14 06:00:00 ET 31.0000 141.000 1014 tokyo main 446 _O____________ -1 31.0000 141.000 6 1014 0 0 0 15 41

Digital Typhoon Data and Search

About IBTrACS Database

This database is a web-friendly format of International Best Track Archive for Climate Stewardship (IBTrACS), a global best track data archive curated by NOAA dating back to 1842.

Updated: 2021-12-03